sensor_id;sensor_type;location;lat;lon;timestamp;pressure;altitude;pressure_sealevel;temperature;humidity
5455;BME280;2750;49.050;9.250;2022-07-22T00:02:37;99116.16;;;21.74;85.65
5455;BME280;2750;49.050;9.250;2022-07-22T00:07:40;99115.66;;;21.50;86.52
5455;BME280;2750;49.050;9.250;2022-07-22T00:12:42;99117.34;;;21.60;85.90
5455;BME280;2750;49.050;9.250;2022-07-22T00:17:43;99123.28;;;21.22;87.37
5455;BME280;2750;49.050;9.250;2022-07-22T00:22:46;99108.94;;;21.45;85.14
5455;BME280;2750;49.050;9.250;2022-07-22T00:27:48;99114.72;;;21.39;85.42
5455;BME280;2750;49.050;9.250;2022-07-22T00:32:49;99119.25;;;21.49;85.46
5455;BME280;2750;49.050;9.250;2022-07-22T00:37:52;99122.44;;;21.42;84.92
5455;BME280;2750;49.050;9.250;2022-07-22T00:42:53;99115.19;;;21.24;85.35
5455;BME280;2750;49.050;9.250;2022-07-22T00:47:55;99115.78;;;21.27;84.89
5455;BME280;2750;49.050;9.250;2022-07-22T00:52:58;99110.88;;;21.43;84.43
5455;BME280;2750;49.050;9.250;2022-07-22T00:58:00;99113.13;;;21.27;83.61
5455;BME280;2750;49.050;9.250;2022-07-22T01:03:01;99109.63;;;21.17;85.59
5455;BME280;2750;49.050;9.250;2022-07-22T01:08:06;99110.31;;;20.67;87.81
5455;BME280;2750;49.050;9.250;2022-07-22T01:13:08;99102.50;;;20.76;87.36
5455;BME280;2750;49.050;9.250;2022-07-22T01:18:09;99102.84;;;21.04;85.78
5455;BME280;2750;49.050;9.250;2022-07-22T01:23:12;99103.03;;;20.91;86.20
5455;BME280;2750;49.050;9.250;2022-07-22T01:28:13;99110.22;;;20.89;86.37
5455;BME280;2750;49.050;9.250;2022-07-22T01:33:15;99112.09;;;20.77;86.78
5455;BME280;2750;49.050;9.250;2022-07-22T01:38:18;99110.16;;;20.79;86.14
5455;BME280;2750;49.050;9.250;2022-07-22T01:43:20;99108.69;;;20.86;86.14
5455;BME280;2750;49.050;9.250;2022-07-22T01:48:22;99117.63;;;20.95;86.87
5455;BME280;2750;49.050;9.250;2022-07-22T01:53:25;99109.16;;;20.60;86.98
5455;BME280;2750;49.050;9.250;2022-07-22T01:58:26;99111.38;;;20.43;87.96
5455;BME280;2750;49.050;9.250;2022-07-22T02:03:28;99106.25;;;20.42;88.23
5455;BME280;2750;49.050;9.250;2022-07-22T02:08:31;99098.78;;;20.47;88.09
5455;BME280;2750;49.050;9.250;2022-07-22T02:13:33;99107.34;;;20.28;89.25
5455;BME280;2750;49.050;9.250;2022-07-22T02:18:35;99107.56;;;20.25;89.35
5455;BME280;2750;49.050;9.250;2022-07-22T02:23:38;99102.03;;;20.39;88.36
5455;BME280;2750;49.050;9.250;2022-07-22T02:28:39;99096.53;;;20.42;88.66
5455;BME280;2750;49.050;9.250;2022-07-22T02:33:41;99096.03;;;20.48;87.70
5455;BME280;2750;49.050;9.250;2022-07-22T02:38:43;99097.13;;;20.46;86.49
5455;BME280;2750;49.050;9.250;2022-07-22T02:43:45;99096.75;;;20.39;87.78
5455;BME280;2750;49.050;9.250;2022-07-22T02:48:46;99098.19;;;20.43;87.24
5455;BME280;2750;49.050;9.250;2022-07-22T02:53:49;99095.81;;;20.40;89.28
5455;BME280;2750;49.050;9.250;2022-07-22T02:58:51;99098.81;;;20.36;88.15
5455;BME280;2750;49.050;9.250;2022-07-22T03:03:53;99096.81;;;20.28;88.52
5455;BME280;2750;49.050;9.250;2022-07-22T03:08:56;99098.50;;;20.18;88.85
5455;BME280;2750;49.050;9.250;2022-07-22T03:13:57;99095.50;;;20.23;87.68
5455;BME280;2750;49.050;9.250;2022-07-22T03:18:58;99106.03;;;20.23;88.49
5455;BME280;2750;49.050;9.250;2022-07-22T03:24:01;99107.16;;;19.98;90.34
5455;BME280;2750;49.050;9.250;2022-07-22T03:29:03;99096.59;;;20.09;89.84
5455;BME280;2750;49.050;9.250;2022-07-22T03:34:04;99099.44;;;20.17;88.81
5455;BME280;2750;49.050;9.250;2022-07-22T03:39:07;99103.88;;;20.17;88.69
5455;BME280;2750;49.050;9.250;2022-07-22T03:44:09;99102.19;;;20.27;89.06
5455;BME280;2750;49.050;9.250;2022-07-22T03:49:10;99097.31;;;20.11;89.30
5455;BME280;2750;49.050;9.250;2022-07-22T03:54:13;99103.34;;;19.91;90.35
5455;BME280;2750;49.050;9.250;2022-07-22T03:59:15;99108.31;;;20.27;89.62
5455;BME280;2750;49.050;9.250;2022-07-22T04:04:16;99109.25;;;20.26;90.59
5455;BME280;2750;49.050;9.250;2022-07-22T04:09:19;99103.59;;;21.36;86.13
5455;BME280;2750;49.050;9.250;2022-07-22T04:14:21;99101.16;;;22.43;81.98
5455;BME280;2750;49.050;9.250;2022-07-22T04:19:22;99101.50;;;23.34;79.43
5455;BME280;2750;49.050;9.250;2022-07-22T04:24:25;99102.53;;;23.98;75.93
5455;BME280;2750;49.050;9.250;2022-07-22T04:29:27;99100.16;;;24.85;74.71
5455;BME280;2750;49.050;9.250;2022-07-22T04:34:28;99105.03;;;26.08;71.29
5455;BME280;2750;49.050;9.250;2022-07-22T04:39:31;99103.50;;;26.72;68.36
5455;BME280;2750;49.050;9.250;2022-07-22T04:44:32;99099.00;;;27.29;67.88
5455;BME280;2750;49.050;9.250;2022-07-22T04:49:34;99100.53;;;27.48;66.81
5455;BME280;2750;49.050;9.250;2022-07-22T04:54:37;99098.78;;;28.10;65.73
5455;BME280;2750;49.050;9.250;2022-07-22T04:59:38;99089.44;;;29.28;63.08
5455;BME280;2750;49.050;9.250;2022-07-22T05:04:40;99081.47;;;28.29;63.85
5455;BME280;2750;49.050;9.250;2022-07-22T05:09:42;99085.16;;;28.81;63.43
5455;BME280;2750;49.050;9.250;2022-07-22T05:14:44;99083.06;;;29.73;62.73
5455;BME280;2750;49.050;9.250;2022-07-22T05:19:46;99084.00;;;30.94;60.68
5455;BME280;2750;49.050;9.250;2022-07-22T05:24:49;99092.13;;;32.38;57.84
5455;BME280;2750;49.050;9.250;2022-07-22T05:29:50;99096.97;;;32.76;57.04
5455;BME280;2750;49.050;9.250;2022-07-22T05:34:52;99102.13;;;33.49;54.62
5455;BME280;2750;49.050;9.250;2022-07-22T05:39:54;99114.50;;;31.63;57.22
5455;BME280;2750;49.050;9.250;2022-07-22T05:44:56;99105.41;;;29.65;61.48
5455;BME280;2750;49.050;9.250;2022-07-22T05:49:57;99099.47;;;27.41;65.64
5455;BME280;2750;49.050;9.250;2022-07-22T05:55:00;99095.22;;;26.99;68.34
5455;BME280;2750;49.050;9.250;2022-07-22T06:00:03;99099.47;;;27.57;66.40
5455;BME280;2750;49.050;9.250;2022-07-22T06:05:05;99092.56;;;26.75;68.30
5455;BME280;2750;49.050;9.250;2022-07-22T06:10:08;99094.72;;;26.05;70.29
5455;BME280;2750;49.050;9.250;2022-07-22T06:15:10;99093.44;;;25.50;71.72
5455;BME280;2750;49.050;9.250;2022-07-22T06:20:11;99091.59;;;25.68;71.36
5455;BME280;2750;49.050;9.250;2022-07-22T06:25:14;99090.63;;;25.77;71.70
5455;BME280;2750;49.050;9.250;2022-07-22T06:30:15;99089.84;;;26.35;69.49
5455;BME280;2750;49.050;9.250;2022-07-22T06:35:17;99089.03;;;26.50;69.28
5455;BME280;2750;49.050;9.250;2022-07-22T06:40:20;99091.22;;;26.79;68.42
5455;BME280;2750;49.050;9.250;2022-07-22T06:45:21;99086.56;;;26.97;68.20
5455;BME280;2750;49.050;9.250;2022-07-22T06:50:23;99086.50;;;27.93;65.98
5455;BME280;2750;49.050;9.250;2022-07-22T06:55:26;99085.88;;;27.20;67.03
5455;BME280;2750;49.050;9.250;2022-07-22T07:00:27;99085.50;;;27.39;67.08
5455;BME280;2750;49.050;9.250;2022-07-22T07:05:29;99090.25;;;28.07;65.12
5455;BME280;2750;49.050;9.250;2022-07-22T07:10:32;99079.81;;;27.97;65.51
5455;BME280;2750;49.050;9.250;2022-07-22T07:15:33;99073.03;;;27.86;65.50
5455;BME280;2750;49.050;9.250;2022-07-22T07:20:35;99060.31;;;28.27;64.88
5455;BME280;2750;49.050;9.250;2022-07-22T07:25:37;99059.91;;;28.38;64.66
5455;BME280;2750;49.050;9.250;2022-07-22T07:30:39;99051.03;;;28.83;63.75
5455;BME280;2750;49.050;9.250;2022-07-22T07:35:40;99040.16;;;29.52;62.63
5455;BME280;2750;49.050;9.250;2022-07-22T07:40:43;99045.00;;;28.89;63.97
5455;BME280;2750;49.050;9.250;2022-07-22T07:45:45;99041.19;;;30.37;60.78
5455;BME280;2750;49.050;9.250;2022-07-22T07:50:46;99035.13;;;30.43;60.59
5455;BME280;2750;49.050;9.250;2022-07-22T07:55:49;99029.28;;;30.40;60.53
5455;BME280;2750;49.050;9.250;2022-07-22T08:00:51;99026.25;;;30.07;61.38
5455;BME280;2750;49.050;9.250;2022-07-22T08:05:53;99023.28;;;33.16;56.21
5455;BME280;2750;49.050;9.250;2022-07-22T08:10:55;99037.75;;;33.99;54.20
5455;BME280;2750;49.050;9.250;2022-07-22T08:15:57;99037.63;;;33.74;54.42
5455;BME280;2750;49.050;9.250;2022-07-22T08:20:58;99026.88;;;35.97;51.12
5455;BME280;2750;49.050;9.250;2022-07-22T08:26:01;99020.47;;;34.44;52.95
5455;BME280;2750;49.050;9.250;2022-07-22T08:31:03;99024.31;;;32.82;55.86
5455;BME280;2750;49.050;9.250;2022-07-22T08:36:05;99019.13;;;33.00;55.76
5455;BME280;2750;49.050;9.250;2022-07-22T08:41:08;99008.50;;;35.33;52.46
5455;BME280;2750;49.050;9.250;2022-07-22T08:46:09;99007.34;;;36.13;51.36
5455;BME280;2750;49.050;9.250;2022-07-22T08:51:11;98992.78;;;37.25;49.92
5455;BME280;2750;49.050;9.250;2022-07-22T08:56:14;98987.69;;;37.80;48.74
5455;BME280;2750;49.050;9.250;2022-07-22T09:01:16;98982.19;;;37.12;49.95
5455;BME280;2750;49.050;9.250;2022-07-22T09:06:19;98978.41;;;35.11;52.53
5455;BME280;2750;49.050;9.250;2022-07-22T09:11:24;98981.81;;;35.00;52.54
5455;BME280;2750;49.050;9.250;2022-07-22T09:16:40;98978.25;;;33.43;54.69
5455;BME280;2750;49.050;9.250;2022-07-22T09:21:44;98971.56;;;32.88;55.42
5455;BME280;2750;49.050;9.250;2022-07-22T09:26:49;98966.81;;;32.37;56.56
5455;BME280;2750;49.050;9.250;2022-07-22T09:31:51;98964.31;;;32.55;56.90
5455;BME280;2750;49.050;9.250;2022-07-22T09:36:54;98961.69;;;31.75;57.95
5455;BME280;2750;49.050;9.250;2022-07-22T09:41:58;98958.00;;;31.83;57.72
5455;BME280;2750;49.050;9.250;2022-07-22T09:46:59;98949.81;;;32.10;56.58
5455;BME280;2750;49.050;9.250;2022-07-22T09:52:02;98948.00;;;32.63;56.61
5455;BME280;2750;49.050;9.250;2022-07-22T09:57:05;98938.69;;;32.73;55.86
5455;BME280;2750;49.050;9.250;2022-07-22T10:02:08;98939.94;;;32.77;55.97
5455;BME280;2750;49.050;9.250;2022-07-22T10:07:11;98928.06;;;32.97;55.77
5455;BME280;2750;49.050;9.250;2022-07-22T10:12:15;98935.25;;;31.78;57.96
5455;BME280;2750;49.050;9.250;2022-07-22T10:17:17;98934.94;;;32.08;57.09
5455;BME280;2750;49.050;9.250;2022-07-22T10:22:44;98926.47;;;32.24;55.97
5455;BME280;2750;49.050;9.250;2022-07-22T10:27:50;98912.19;;;32.04;56.79
5455;BME280;2750;49.050;9.250;2022-07-22T10:33:08;98908.47;;;32.57;56.37
5455;BME280;2750;49.050;9.250;2022-07-22T10:38:11;98891.09;;;32.73;55.71
5455;BME280;2750;49.050;9.250;2022-07-22T10:43:16;98900.19;;;32.06;55.88
5455;BME280;2750;49.050;9.250;2022-07-22T10:53:49;98893.59;;;32.48;55.29
5455;BME280;2750;49.050;9.250;2022-07-22T10:58:59;98885.94;;;32.32;55.44
5455;BME280;2750;49.050;9.250;2022-07-22T11:04:08;98870.84;;;32.44;55.74
5455;BME280;2750;49.050;9.250;2022-07-22T11:09:11;98868.34;;;32.76;54.80
5455;BME280;2750;49.050;9.250;2022-07-22T11:14:17;98865.31;;;31.33;56.90
5455;BME280;2750;49.050;9.250;2022-07-22T11:19:21;98865.25;;;32.39;55.18
5455;BME280;2750;49.050;9.250;2022-07-22T11:24:23;98858.59;;;33.32;53.71
5455;BME280;2750;49.050;9.250;2022-07-22T11:29:29;98852.47;;;34.13;53.55
5455;BME280;2750;49.050;9.250;2022-07-22T11:34:36;98833.97;;;33.67;53.56
5455;BME280;2750;49.050;9.250;2022-07-22T11:39:38;98844.56;;;33.93;51.27
5455;BME280;2750;49.050;9.250;2022-07-22T11:44:40;98838.13;;;34.62;51.47
5455;BME280;2750;49.050;9.250;2022-07-22T11:49:46;98813.38;;;35.37;50.56
5455;BME280;2750;49.050;9.250;2022-07-22T11:54:48;98814.97;;;34.36;50.68
5455;BME280;2750;49.050;9.250;2022-07-22T11:59:51;98801.59;;;34.66;50.22
5455;BME280;2750;49.050;9.250;2022-07-22T12:04:53;98791.69;;;35.56;48.16
5455;BME280;2750;49.050;9.250;2022-07-22T12:09:54;98783.72;;;35.61;48.81
5455;BME280;2750;49.050;9.250;2022-07-22T12:14:58;98769.22;;;35.43;49.01
5455;BME280;2750;49.050;9.250;2022-07-22T12:20:09;98759.34;;;35.37;48.35
5455;BME280;2750;49.050;9.250;2022-07-22T12:25:10;98762.16;;;35.42;48.37
5455;BME280;2750;49.050;9.250;2022-07-22T12:30:14;98755.25;;;34.87;49.74
5455;BME280;2750;49.050;9.250;2022-07-22T12:35:15;98747.94;;;34.76;49.83
5455;BME280;2750;49.050;9.250;2022-07-22T12:40:18;98752.69;;;34.19;48.77
5455;BME280;2750;49.050;9.250;2022-07-22T12:45:21;98753.81;;;35.32;48.03
5455;BME280;2750;49.050;9.250;2022-07-22T12:50:25;98738.63;;;35.96;48.46
5455;BME280;2750;49.050;9.250;2022-07-22T12:55:27;98743.22;;;36.30;46.59
5455;BME280;2750;49.050;9.250;2022-07-22T13:00:33;98732.34;;;36.65;45.80
5455;BME280;2750;49.050;9.250;2022-07-22T13:05:35;98726.06;;;36.36;46.39
5455;BME280;2750;49.050;9.250;2022-07-22T13:10:36;98725.88;;;35.09;47.19
5455;BME280;2750;49.050;9.250;2022-07-22T13:15:39;98716.66;;;35.16;46.79
5455;BME280;2750;49.050;9.250;2022-07-22T13:20:41;98719.78;;;36.48;46.87
5455;BME280;2750;49.050;9.250;2022-07-22T13:25:43;98711.50;;;37.06;45.64
5455;BME280;2750;49.050;9.250;2022-07-22T13:30:46;98707.00;;;37.28;45.33
5455;BME280;2750;49.050;9.250;2022-07-22T13:35:47;98703.28;;;36.61;45.06
5455;BME280;2750;49.050;9.250;2022-07-22T13:40:49;98686.41;;;37.77;44.51
5455;BME280;2750;49.050;9.250;2022-07-22T13:45:53;98690.25;;;37.98;43.74
5455;BME280;2750;49.050;9.250;2022-07-22T13:50:55;98675.94;;;38.41;43.54
5455;BME280;2750;49.050;9.250;2022-07-22T13:55:56;98677.84;;;39.20;42.64
5455;BME280;2750;49.050;9.250;2022-07-22T14:00:59;98675.00;;;39.05;42.93
5455;BME280;2750;49.050;9.250;2022-07-22T14:06:01;98680.53;;;38.40;43.25
5455;BME280;2750;49.050;9.250;2022-07-22T14:11:03;98677.66;;;38.08;43.44
5455;BME280;2750;49.050;9.250;2022-07-22T14:16:06;98667.31;;;38.97;42.16
5455;BME280;2750;49.050;9.250;2022-07-22T14:21:26;98663.00;;;38.74;43.26
5455;BME280;2750;49.050;9.250;2022-07-22T14:26:28;98651.75;;;39.19;42.13
5455;BME280;2750;49.050;9.250;2022-07-22T14:31:31;98651.38;;;39.06;42.41
5455;BME280;2750;49.050;9.250;2022-07-22T14:36:33;98651.66;;;41.43;40.56
5455;BME280;2750;49.050;9.250;2022-07-22T14:41:34;98649.97;;;41.57;40.51
5455;BME280;2750;49.050;9.250;2022-07-22T14:46:37;98643.28;;;38.84;42.54
5455;BME280;2750;49.050;9.250;2022-07-22T14:51:39;98638.19;;;37.79;44.22
5455;BME280;2750;49.050;9.250;2022-07-22T14:56:40;98629.19;;;38.39;42.93
5455;BME280;2750;49.050;9.250;2022-07-22T15:01:43;98640.13;;;38.44;42.89
5455;BME280;2750;49.050;9.250;2022-07-22T15:06:45;98633.97;;;40.33;41.53
5455;BME280;2750;49.050;9.250;2022-07-22T15:11:46;98626.72;;;39.44;42.26
5455;BME280;2750;49.050;9.250;2022-07-22T15:16:49;98623.06;;;39.29;42.50
5455;BME280;2750;49.050;9.250;2022-07-22T15:21:51;98619.97;;;41.62;40.60
5455;BME280;2750;49.050;9.250;2022-07-22T15:26:52;98624.81;;;44.09;38.50
5455;BME280;2750;49.050;9.250;2022-07-22T15:31:55;98614.00;;;43.99;37.63
5455;BME280;2750;49.050;9.250;2022-07-22T15:36:56;98614.59;;;45.59;37.54
5455;BME280;2750;49.050;9.250;2022-07-22T15:41:58;98609.56;;;42.43;40.16
5455;BME280;2750;49.050;9.250;2022-07-22T15:47:01;98609.81;;;40.46;42.67
5455;BME280;2750;49.050;9.250;2022-07-22T15:52:03;98609.50;;;40.28;43.64
5455;BME280;2750;49.050;9.250;2022-07-22T15:57:04;98603.44;;;38.68;44.40
5455;BME280;2750;49.050;9.250;2022-07-22T16:02:31;98599.09;;;36.47;47.96
5455;BME280;2750;49.050;9.250;2022-07-22T16:07:33;98584.41;;;37.38;46.46
5455;BME280;2750;49.050;9.250;2022-07-22T16:12:35;98586.47;;;35.84;47.87
5455;BME280;2750;49.050;9.250;2022-07-22T16:17:38;98585.09;;;37.11;47.59
5455;BME280;2750;49.050;9.250;2022-07-22T16:22:40;98585.28;;;37.21;46.52
5455;BME280;2750;49.050;9.250;2022-07-22T16:27:41;98571.38;;;37.01;47.04
5455;BME280;2750;49.050;9.250;2022-07-22T16:32:44;98560.81;;;37.16;46.92
5455;BME280;2750;49.050;9.250;2022-07-22T16:37:46;98561.31;;;37.90;46.15
5455;BME280;2750;49.050;9.250;2022-07-22T16:42:47;98564.97;;;36.46;47.64
5455;BME280;2750;49.050;9.250;2022-07-22T16:47:50;98564.47;;;37.82;45.76
5455;BME280;2750;49.050;9.250;2022-07-22T16:52:51;98569.91;;;37.82;45.73
5455;BME280;2750;49.050;9.250;2022-07-22T16:57:53;98560.84;;;36.26;48.17
5455;BME280;2750;49.050;9.250;2022-07-22T17:02:56;98553.00;;;36.41;47.88
5455;BME280;2750;49.050;9.250;2022-07-22T17:07:58;98536.47;;;37.55;46.01
5455;BME280;2750;49.050;9.250;2022-07-22T17:13:00;98538.16;;;37.61;45.75
5455;BME280;2750;49.050;9.250;2022-07-22T17:18:03;98543.41;;;36.79;46.51
5455;BME280;2750;49.050;9.250;2022-07-22T17:23:04;98542.56;;;36.62;45.91
5455;BME280;2750;49.050;9.250;2022-07-22T17:28:06;98545.91;;;36.24;46.04
5455;BME280;2750;49.050;9.250;2022-07-22T17:33:08;98544.91;;;35.62;47.25
5455;BME280;2750;49.050;9.250;2022-07-22T17:38:10;98548.03;;;35.82;47.13
5455;BME280;2750;49.050;9.250;2022-07-22T17:43:12;98547.25;;;35.35;47.04
5455;BME280;2750;49.050;9.250;2022-07-22T17:48:15;98557.56;;;35.73;46.48
5455;BME280;2750;49.050;9.250;2022-07-22T17:53:16;98567.94;;;33.69;47.68
5455;BME280;2750;49.050;9.250;2022-07-22T17:58:18;98588.63;;;32.76;50.00
5455;BME280;2750;49.050;9.250;2022-07-22T18:03:20;98587.69;;;32.19;50.57
5455;BME280;2750;49.050;9.250;2022-07-22T18:08:23;98594.03;;;32.31;51.66
5455;BME280;2750;49.050;9.250;2022-07-22T18:13:25;98597.09;;;31.84;52.46
5455;BME280;2750;49.050;9.250;2022-07-22T18:18:28;98602.31;;;31.65;52.83
5455;BME280;2750;49.050;9.250;2022-07-22T18:23:29;98630.63;;;31.42;54.13
5455;BME280;2750;49.050;9.250;2022-07-22T18:28:31;98612.63;;;31.49;54.33
5455;BME280;2750;49.050;9.250;2022-07-22T18:33:34;98617.41;;;31.53;54.66
5455;BME280;2750;49.050;9.250;2022-07-22T18:38:36;98617.41;;;31.53;54.79
5455;BME280;2750;49.050;9.250;2022-07-22T18:43:37;98618.84;;;31.62;54.92
5455;BME280;2750;49.050;9.250;2022-07-22T18:48:40;98628.34;;;31.65;54.49
5455;BME280;2750;49.050;9.250;2022-07-22T18:53:42;98631.03;;;31.32;55.99
5455;BME280;2750;49.050;9.250;2022-07-22T18:58:43;98641.56;;;31.34;55.95
5455;BME280;2750;49.050;9.250;2022-07-22T19:03:46;98657.84;;;30.99;56.75
5455;BME280;2750;49.050;9.250;2022-07-22T19:08:48;98665.06;;;30.99;57.78
5455;BME280;2750;49.050;9.250;2022-07-22T19:13:49;98672.06;;;30.93;57.61
5455;BME280;2750;49.050;9.250;2022-07-22T19:18:52;98665.47;;;31.09;57.81
5455;BME280;2750;49.050;9.250;2022-07-22T19:23:53;98672.50;;;31.10;57.92
5455;BME280;2750;49.050;9.250;2022-07-22T19:28:55;98665.91;;;31.32;57.56
5455;BME280;2750;49.050;9.250;2022-07-22T19:33:58;98678.31;;;31.46;56.76
5455;BME280;2750;49.050;9.250;2022-07-22T19:39:00;98674.09;;;30.98;58.42
5455;BME280;2750;49.050;9.250;2022-07-22T19:44:02;98680.25;;;30.65;59.59
5455;BME280;2750;49.050;9.250;2022-07-22T19:49:04;98677.31;;;30.60;59.78
5455;BME280;2750;49.050;9.250;2022-07-22T19:54:06;98698.75;;;29.85;60.39
5455;BME280;2750;49.050;9.250;2022-07-22T19:59:07;98693.56;;;30.05;60.78
5455;BME280;2750;49.050;9.250;2022-07-22T20:04:10;98731.34;;;29.67;61.67
5455;BME280;2750;49.050;9.250;2022-07-22T20:09:12;98740.28;;;28.89;63.36
5455;BME280;2750;49.050;9.250;2022-07-22T20:14:13;98745.66;;;28.45;64.89
5455;BME280;2750;49.050;9.250;2022-07-22T20:19:16;98740.50;;;28.15;65.16
5455;BME280;2750;49.050;9.250;2022-07-22T20:24:18;98740.22;;;28.54;65.02
5455;BME280;2750;49.050;9.250;2022-07-22T20:29:19;98732.25;;;28.75;64.72
5455;BME280;2750;49.050;9.250;2022-07-22T20:34:22;98745.22;;;28.27;65.44
5455;BME280;2750;49.050;9.250;2022-07-22T20:39:23;98740.22;;;28.68;65.15
5455;BME280;2750;49.050;9.250;2022-07-22T20:44:25;98742.97;;;28.45;63.88
5455;BME280;2750;49.050;9.250;2022-07-22T20:49:28;98751.19;;;28.73;65.53
5455;BME280;2750;49.050;9.250;2022-07-22T20:54:29;98769.44;;;28.55;65.83
5455;BME280;2750;49.050;9.250;2022-07-22T20:59:31;98772.63;;;28.65;65.98
5455;BME280;2750;49.050;9.250;2022-07-22T21:04:33;98777.53;;;28.47;64.97
5455;BME280;2750;49.050;9.250;2022-07-22T21:09:35;98767.91;;;28.67;65.13
5455;BME280;2750;49.050;9.250;2022-07-22T21:14:37;98743.44;;;28.49;67.43
5455;BME280;2750;49.050;9.250;2022-07-22T21:19:39;98714.63;;;27.86;68.65
5455;BME280;2750;49.050;9.250;2022-07-22T21:24:41;98685.41;;;27.55;70.49
5455;BME280;2750;49.050;9.250;2022-07-22T21:29:43;98670.78;;;27.51;72.13
5455;BME280;2750;49.050;9.250;2022-07-22T21:34:46;98682.63;;;27.48;69.44
5455;BME280;2750;49.050;9.250;2022-07-22T21:39:47;98704.28;;;27.83;69.02
5455;BME280;2750;49.050;9.250;2022-07-22T21:44:49;98735.88;;;27.56;70.39
5455;BME280;2750;49.050;9.250;2022-07-22T21:49:52;98742.47;;;27.83;68.51
5455;BME280;2750;49.050;9.250;2022-07-22T21:54:54;98733.50;;;27.47;71.09
5455;BME280;2750;49.050;9.250;2022-07-22T21:59:55;98717.72;;;27.15;73.05
5455;BME280;2750;49.050;9.250;2022-07-22T22:04:58;98621.00;;;26.83;72.20
5455;BME280;2750;49.050;9.250;2022-07-22T22:10:00;98612.69;;;26.86;71.49
5455;BME280;2750;49.050;9.250;2022-07-22T22:15:01;98644.59;;;26.94;71.23
5455;BME280;2750;49.050;9.250;2022-07-22T22:20:05;98662.34;;;27.25;69.73
5455;BME280;2750;49.050;9.250;2022-07-22T22:25:07;98694.34;;;27.39;69.10
5455;BME280;2750;49.050;9.250;2022-07-22T22:30:12;98702.25;;;27.33;69.12
5455;BME280;2750;49.050;9.250;2022-07-22T22:35:15;98711.63;;;27.29;69.08
5455;BME280;2750;49.050;9.250;2022-07-22T22:40:16;98701.53;;;27.39;69.57
5455;BME280;2750;49.050;9.250;2022-07-22T22:45:18;98698.75;;;27.55;68.11
5455;BME280;2750;49.050;9.250;2022-07-22T22:50:21;98698.00;;;27.61;69.37
5455;BME280;2750;49.050;9.250;2022-07-22T22:55:22;98689.25;;;27.30;70.11
5455;BME280;2750;49.050;9.250;2022-07-22T23:00:24;98696.56;;;27.73;70.52
5455;BME280;2750;49.050;9.250;2022-07-22T23:05:26;98697.03;;;27.39;69.75
5455;BME280;2750;49.050;9.250;2022-07-22T23:10:28;98700.72;;;27.16;68.71
5455;BME280;2750;49.050;9.250;2022-07-22T23:15:30;98705.63;;;27.27;68.90
5455;BME280;2750;49.050;9.250;2022-07-22T23:20:33;98703.88;;;27.34;68.58
5455;BME280;2750;49.050;9.250;2022-07-22T23:25:50;98699.84;;;27.38;68.46
5455;BME280;2750;49.050;9.250;2022-07-22T23:30:52;98699.13;;;27.52;68.08
5455;BME280;2750;49.050;9.250;2022-07-22T23:35:55;98701.41;;;27.55;67.97
5455;BME280;2750;49.050;9.250;2022-07-22T23:40:56;98688.44;;;27.52;68.82
5455;BME280;2750;49.050;9.250;2022-07-22T23:46:02;98676.19;;;27.20;69.28
5455;BME280;2750;49.050;9.250;2022-07-22T23:51:05;98663.75;;;27.13;69.42
5455;BME280;2750;49.050;9.250;2022-07-22T23:56:06;98667.91;;;27.15;69.76
